Archival Weather

Central Park

Central Park, New York (KNYC)

Report from: Thursday, September 21, 2023 4:51 AM EDT
Current time: Friday, February 23, 2024 4:06 PM EST

Current weather – Weather history – Daily summaries
Weather forecast

Temperature15.0°C (59.0°F)
Dew point10.6°C (51.1°F)
Winds Calm
Visibility10 mi. (16.1 km)
Clouds Sky clear
Altimeter30.25 in.Hg (1024 mB)
Relative humidity75 %
Density altitude-158 ft. (-48 m)
Sea-level pressure102.3 kPa (1023 mB, 30.22 in.Hg)
Remarks Fully automated report
System requires maintenance
Automated weather observing station with precipitation discriminator
Pressure rising more quickly
Flight conditions Visual Meteorological Conditions
Raw dataKNYC 210851Z AUTO 00000KT 10SM CLR 15/11 A3025 RMK AO2 SLP233 T01500106 53006 $
An error has occurred. This application may no longer respond until reloaded. Reload 🗙